Time;durP1;ratioP1;P1;durP2;ratioP2;P2;SDS_P1;SDS_P2;PMS_P1;PMS_P2;Temp;Humidity;BMP_temperature;BMP_pressure;BME280_temperature;BME280_humidity;BME280_pressure;Samples;Min_cycle;Max_cycle;Signal;HPM_P1;HPM_P2
2022/11/11 04:51:13;;;;;;;;;;;21.20;99.90;;;;;;5165317;22;19926;-81
2022/11/11 04:53:39;;;;;;;;;;;21.20;99.90;;;;;;5020530;28;20402;-81
2022/11/11 04:59:14;;;;;;;;;;;21.20;99.90;;;;;;5020192;28;19928;-81
2022/11/11 05:04:21;;;;;;;;;;;21.20;99.90;;;;;;4997439;28;20035;-76
2022/11/11 05:09:39;;;;;;;;;;;21.20;99.90;;;;;;5034401;22;19932;-82
2022/11/11 05:12:06;;;;;;;;;;;21.20;99.90;;;;;;5016710;28;20294;-82
2022/11/11 05:22:46;;;;;;;;;;;21.30;99.90;;;;;;4994922;28;19929;-81
2022/11/11 05:25:24;;;;;;;;;;;21.30;99.90;;;;;;4994397;28;20399;-80
2022/11/11 05:27:51;;;;;;;;;;;21.30;99.90;;;;;;4994788;28;20381;-80
2022/11/11 05:30:17;;;;;;;;;;;21.30;99.90;;;;;;4995058;28;19933;-81
2022/11/11 05:32:44;;;;;;;;;;;21.30;99.90;;;;;;4995024;28;19926;-78
2022/11/11 05:35:11;;;;;;;;;;;21.30;99.90;;;;;;4994750;28;20415;-80
2022/11/11 05:37:38;;;;;;;;;;;21.30;99.90;;;;;;4995190;28;19929;-80
2022/11/11 05:40:06;;;;;;;;;;;21.30;99.90;;;;;;4995186;28;20391;-82
2022/11/11 05:42:33;;;;;;;;;;;21.30;99.90;;;;;;4995222;28;19926;-77
2022/11/11 05:45:00;;;;;;;;;;;21.30;99.90;;;;;;4994866;28;19925;-79
2022/11/11 05:47:26;;;;;;;;;;;21.30;99.90;;;;;;4995053;28;19926;-76
2022/11/11 05:49:53;;;;;;;;;;;21.20;99.90;;;;;;4994589;28;19926;-75
2022/11/11 05:52:20;;;;;;;;;;;21.20;99.90;;;;;;4994621;28;19932;-74
2022/11/11 05:54:46;;;;;;;;;;;21.20;99.90;;;;;;4994556;28;19926;-75
2022/11/11 05:57:14;;;;;;;;;;;21.20;99.90;;;;;;4994572;28;19948;-76
2022/11/11 05:59:41;;;;;;;;;;;21.10;99.90;;;;;;4994659;28;19952;-75
2022/11/11 06:02:08;;;;;;;;;;;21.10;99.90;;;;;;4995758;28;19932;-75
2022/11/11 06:04:35;;;;;;;;;;;21.10;99.90;;;;;;4998125;28;20377;-74
2022/11/11 06:07:01;;;;;;;;;;;21.10;99.90;;;;;;4998392;28;19948;-75
2022/11/11 06:09:28;;;;;;;;;;;21.10;99.90;;;;;;4998233;28;19933;-75
2022/11/11 06:11:54;;;;;;;;;;;21.10;99.90;;;;;;4998359;28;19926;-75
2022/11/11 06:14:22;;;;;;;;;;;21.20;99.90;;;;;;4998288;28;19937;-77
2022/11/11 06:16:49;;;;;;;;;;;21.20;99.90;;;;;;4998418;28;19926;-76
2022/11/11 06:19:15;;;;;;;;;;;21.20;99.90;;;;;;4998389;28;19926;-78
2022/11/11 06:21:57;;;;;;;;;;;21.20;99.90;;;;;;4997920;28;19926;-77
2022/11/11 06:24:24;;;;;;;;;;;21.20;99.90;;;;;;4998253;28;19926;-80
2022/11/11 06:26:50;;;;;;;;;;;21.20;99.90;;;;;;4998125;28;20312;-77
2022/11/11 09:24:18;;;;;;;;;;;21.10;99.80;;;;;;5113237;22;20360;-79
2022/11/11 09:26:46;;;;;;;;;;;21.10;99.80;;;;;;5014693;28;19937;-78
2022/11/11 09:29:13;;;;;;;;;;;21.10;99.80;;;;;;5014522;28;19926;-78
2022/11/11 09:31:39;;;;;;;;;;;21.10;99.80;;;;;;5015665;28;19926;-79
2022/11/11 09:34:06;;;;;;;;;;;21.20;99.80;;;;;;5016865;28;19926;-78
2022/11/11 09:36:33;;;;;;;;;;;21.20;99.70;;;;;;5017099;28;19993;-79
2022/11/11 09:39:00;;;;;;;;;;;21.20;99.90;;;;;;5017270;28;19925;-78
2022/11/11 09:41:32;;;;;;;;;;;21.20;99.60;;;;;;5017281;28;20389;-79
2022/11/11 09:44:00;;;;;;;;;;;21.20;99.50;;;;;;5017363;28;19926;-78
2022/11/11 09:46:31;;;;;;;;;;;21.20;99.40;;;;;;5016139;28;20016;-79
2022/11/11 09:49:10;;;;;;;;;;;21.20;99.30;;;;;;5017711;28;19925;-78
2022/11/11 09:51:40;;;;;;;;;;;21.20;99.20;;;;;;5018464;28;19926;-79
2022/11/11 09:54:11;;;;;;;;;;;21.20;99.10;;;;;;5017492;28;19925;-79
2022/11/11 09:56:39;;;;;;;;;;;21.20;99.00;;;;;;5017211;28;19926;-79
2022/11/11 09:59:07;;;;;;;;;;;21.20;98.90;;;;;;5017383;28;20262;-79
2022/11/11 10:01:37;;;;;;;;;;;21.20;98.80;;;;;;5016881;28;20296;-80
2022/11/11 10:04:07;;;;;;;;;;;21.20;98.70;;;;;;5017073;28;20060;-79
2022/11/11 10:06:35;;;;;;;;;;;21.20;98.60;;;;;;5015884;28;19926;-79
2022/11/11 10:09:07;;;;;;;;;;;21.20;98.50;;;;;;5016969;28;19933;-78
2022/11/11 10:11:39;;;;;;;;;;;21.20;98.30;;;;;;5016895;28;20389;-78
2022/11/11 10:14:07;;;;;;;;;;;21.20;98.30;;;;;;5016941;28;19925;-78
2022/11/11 10:16:37;;;;;;;;;;;21.20;98.30;;;;;;5016401;28;20408;-79
2022/11/11 10:19:11;;;;;;;;;;;21.20;98.30;;;;;;5015318;28;19940;-78
2022/11/11 10:21:41;;;;;;;;;;;21.20;98.30;;;;;;5014511;28;19926;-79
2022/11/11 10:24:13;;;;;;;;;;;21.20;98.30;;;;;;5014337;28;19926;-78
2022/11/11 10:26:41;;;;;;;;;;;21.20;98.30;;;;;;5013760;28;19925;-77
2022/11/11 10:29:13;;;;;;;;;;;21.20;98.30;;;;;;5014183;28;19933;-77
2022/11/11 10:31:41;;;;;;;;;;;21.20;98.60;;;;;;5014022;28;19926;-78
2022/11/11 10:34:10;;;;;;;;;;;21.20;98.30;;;;;;5014877;28;19926;-79
2022/11/11 10:36:42;;;;;;;;;;;21.20;98.30;;;;;;5023627;23;19952;-78
2022/11/11 10:39:10;;;;;;;;;;;21.20;98.30;;;;;;5015293;28;19925;-78
2022/11/11 10:41:38;;;;;;;;;;;21.20;98.20;;;;;;5014912;28;19964;-78
2022/11/11 10:44:20;;;;;;;;;;;21.20;98.10;;;;;;5014863;28;19926;-79
2022/11/11 10:46:52;;;;;;;;;;;21.20;98.00;;;;;;5014804;28;19975;-79
2022/11/11 10:49:21;;;;;;;;;;;21.30;97.90;;;;;;5016676;28;20384;-80
2022/11/11 10:51:49;;;;;;;;;;;21.20;97.80;;;;;;5019763;28;19932;-80
2022/11/11 10:54:19;;;;;;;;;;;21.20;97.70;;;;;;5019210;28;20388;-80
2022/11/11 10:56:48;;;;;;;;;;;21.20;97.60;;;;;;5018737;28;19948;-80
2022/11/11 10:59:18;;;;;;;;;;;21.20;97.50;;;;;;5018791;28;19925;-80
2022/11/11 11:01:49;;;;;;;;;;;21.20;97.50;;;;;;5018020;28;19932;-79
2022/11/11 11:04:20;;;;;;;;;;;21.20;97.60;;;;;;5019376;28;19926;-80
2022/11/11 11:06:48;;;;;;;;;;;21.30;97.60;;;;;;5018728;28;19935;-81
2022/11/11 11:09:18;;;;;;;;;;;21.30;97.60;;;;;;5020271;28;19948;-80
2022/11/11 11:11:49;;;;;;;;;;;21.30;97.50;;;;;;5019609;28;19933;-80
2022/11/11 11:14:20;;;;;;;;;;;21.30;97.40;;;;;;5019404;28;19932;-81
2022/11/11 11:16:50;;;;;;;;;;;21.30;97.30;;;;;;5019621;28;19932;-79
2022/11/11 11:19:18;;;;;;;;;;;21.30;97.20;;;;;;5019036;28;19929;-80
2022/11/11 11:21:54;;;;;;;;;;;21.30;97.20;;;;;;5018593;28;19926;-80
2022/11/11 11:24:22;;;;;;;;;;;21.30;97.10;;;;;;5019268;28;19933;-79
2022/11/11 11:26:50;;;;;;;;;;;21.30;97.10;;;;;;5017738;28;20376;-79
2022/11/11 11:29:25;;;;;;;;;;;21.30;97.10;;;;;;5018435;28;19929;-79
2022/11/11 11:31:54;;;;;;;;;;;21.30;97.00;;;;;;5018142;28;19925;-79
2022/11/11 11:34:20;;;;;;;;;;;21.20;96.80;;;;;;5018197;28;20020;-79
2022/11/11 11:36:59;;;;;;;;;;;21.20;96.60;;;;;;5017375;28;19936;-79
2022/11/11 11:39:32;;;;;;;;;;;21.20;96.50;;;;;;5019328;28;19949;-79
2022/11/11 11:41:59;;;;;;;;;;;21.20;96.30;;;;;;5018391;28;19948;-79
2022/11/11 11:44:26;;;;;;;;;;;21.10;96.00;;;;;;5017650;28;19932;-79
2022/11/11 11:46:56;;;;;;;;;;;21.10;95.80;;;;;;5017380;28;19925;-79
2022/11/11 11:49:30;;;;;;;;;;;21.10;95.80;;;;;;5016856;28;19925;-79
2022/11/11 11:52:00;;;;;;;;;;;21.10;95.50;;;;;;5017441;28;19925;-81
2022/11/11 11:54:45;;;;;;;;;;;21.10;95.30;;;;;;5017956;28;19926;-79
2022/11/11 11:57:18;;;;;;;;;;;21.10;95.00;;;;;;5017724;28;19926;-80
2022/11/11 11:59:50;;;;;;;;;;;21.00;94.80;;;;;;5017901;28;19933;-80
2022/11/11 12:02:28;;;;;;;;;;;21.00;94.50;;;;;;5016907;28;20393;-79
2022/11/11 12:05:08;;;;;;;;;;;21.00;94.30;;;;;;5016896;28;20304;-80
2022/11/11 12:07:45;;;;;;;;;;;21.00;94.10;;;;;;5016695;28;19933;-80
2022/11/11 12:10:19;;;;;;;;;;;21.00;93.90;;;;;;5017529;28;19925;-79
2022/11/11 12:12:48;;;;;;;;;;;21.00;93.60;;;;;;5020198;28;20385;-78
2022/11/11 12:15:25;;;;;;;;;;;21.00;93.30;;;;;;5017637;28;19926;-79
2022/11/11 12:18:00;;;;;;;;;;;20.90;93.20;;;;;;5020238;28;19925;-78
2022/11/11 12:20:28;;;;;;;;;;;20.90;92.90;;;;;;5020581;28;19925;-78
2022/11/11 12:23:06;;;;;;;;;;;20.90;92.70;;;;;;5022373;28;20020;-78
2022/11/11 12:25:51;;;;;;;;;;;20.90;92.50;;;;;;5022086;28;19932;-79
2022/11/11 12:28:26;;;;;;;;;;;20.90;92.70;;;;;;5022530;28;19931;-80
2022/11/11 12:31:00;;;;;;;;;;;20.90;92.10;;;;;;5021837;28;19931;-80
2022/11/11 12:33:42;;;;;;;;;;;20.90;91.90;;;;;;5020838;28;19984;-80
2022/11/11 12:36:10;;;;;;;;;;;21.00;91.70;;;;;;5018880;28;19929;-79
2022/11/11 12:38:43;;;;;;;;;;;21.00;91.50;;;;;;5020432;28;19933;-79
2022/11/11 12:41:14;;;;;;;;;;;21.00;91.30;;;;;;5019780;28;19925;-79
2022/11/11 12:43:45;;;;;;;;;;;21.00;91.20;;;;;;5020735;28;19932;-79
2022/11/11 12:46:16;;;;;;;;;;;21.00;91.00;;;;;;5022997;28;19925;-79
2022/11/11 12:48:52;;;;;;;;;;;21.00;90.80;;;;;;5021588;28;20419;-79
2022/11/11 12:51:22;;;;;;;;;;;21.00;90.80;;;;;;5022156;28;19937;-79
2022/11/11 12:53:56;;;;;;;;;;;21.00;90.80;;;;;;5021661;28;19926;-79
2022/11/11 12:56:25;;;;;;;;;;;21.00;90.70;;;;;;5020733;28;19925;-79
2022/11/11 12:58:55;;;;;;;;;;;21.10;90.60;;;;;;5019834;28;19976;-81
2022/11/11 13:01:28;;;;;;;;;;;21.10;90.40;;;;;;5023186;28;19925;-81
2022/11/11 13:04:00;;;;;;;;;;;21.10;90.30;;;;;;5023031;28;19925;-81
2022/11/11 13:06:33;;;;;;;;;;;21.10;90.10;;;;;;5019244;28;19933;-81
2022/11/11 13:09:18;;;;;;;;;;;20.90;89.90;;;;;;5019286;28;20016;-82
2022/11/11 13:11:50;;;;;;;;;;;21.00;89.80;;;;;;5018348;28;19925;-82
2022/11/11 13:14:27;;;;;;;;;;;21.00;89.70;;;;;;5018717;28;19925;-81
2022/11/11 13:16:55;;;;;;;;;;;21.10;89.70;;;;;;5018997;28;20385;-80
2022/11/11 13:19:25;;;;;;;;;;;21.10;89.60;;;;;;5018697;28;19926;-81
2022/11/11 13:21:53;;;;;;;;;;;21.10;89.60;;;;;;5016014;28;20308;-80
2022/11/11 13:24:20;;;;;;;;;;;21.10;89.50;;;;;;5017631;28;19926;-80
2022/11/11 13:26:49;;;;;;;;;;;21.20;89.50;;;;;;5018815;28;19933;-80
2022/11/11 13:29:32;;;;;;;;;;;21.20;89.30;;;;;;5020015;28;20340;-80
2022/11/11 13:31:59;;;;;;;;;;;21.20;89.10;;;;;;5018613;28;20336;-79
2022/11/11 13:34:33;;;;;;;;;;;21.20;88.90;;;;;;5017703;28;20377;-80
2022/11/11 13:37:01;;;;;;;;;;;21.20;88.70;;;;;;5016845;28;19926;-80
2022/11/11 13:39:29;;;;;;;;;;;21.20;88.40;;;;;;5016537;28;20377;-80
2022/11/11 13:41:56;;;;;;;;;;;21.20;88.30;;;;;;5016671;28;19926;-80
2022/11/11 13:44:24;;;;;;;;;;;21.20;88.10;;;;;;5017626;28;19933;-80
2022/11/11 13:46:51;;;;;;;;;;;21.20;87.90;;;;;;5018130;28;19925;-82
2022/11/11 13:49:23;;;;;;;;;;;21.10;87.60;;;;;;5015719;28;19926;-81
2022/11/11 13:51:58;;;;;;;;;;;21.20;87.50;;;;;;5015220;28;19925;-82
2022/11/11 13:54:27;;;;;;;;;;;21.20;87.30;;;;;;5015776;28;19925;-81
2022/11/11 13:57:00;;;;;;;;;;;21.20;87.10;;;;;;5015911;28;19925;-82
2022/11/11 13:59:29;;;;;;;;;;;20.90;86.60;;;;;;5015125;28;19925;-83
2022/11/11 14:02:11;;;;;;;;;;;21.20;86.60;;;;;;5018103;28;19926;-81
2022/11/11 14:04:52;;;;;;;;;;;21.10;86.40;;;;;;5020731;28;19926;-82
2022/11/11 14:07:38;;;;;;;;;;;21.20;86.50;;;;;;5021106;28;19925;-80
2022/11/11 14:10:07;;;;;;;;;;;21.20;86.50;;;;;;5024403;28;19926;-80
2022/11/11 14:12:37;;;;;;;;;;;21.10;86.40;;;;;;5021297;28;20025;-82
2022/11/11 14:15:07;;;;;;;;;;;21.10;86.30;;;;;;5020670;28;19932;-82
2022/11/11 14:17:34;;;;;;;;;;;21.10;86.00;;;;;;5020119;28;19948;-82
2022/11/11 14:20:16;;;;;;;;;;;21.10;85.80;;;;;;5021199;28;19925;-82
2022/11/11 14:22:43;;;;;;;;;;;21.10;85.80;;;;;;5020467;28;19935;-79
2022/11/11 14:25:19;;;;;;;;;;;21.10;85.70;;;;;;5024015;28;19932;-82
2022/11/11 14:27:46;;;;;;;;;;;21.10;85.80;;;;;;5024077;28;19926;-82
2022/11/11 14:30:27;;;;;;;;;;;21.20;85.90;;;;;;5025408;28;19925;-82
2022/11/11 14:32:56;;;;;;;;;;;21.20;85.90;;;;;;5019863;28;19926;-81
2022/11/11 14:35:27;;;;;;;;;;;21.20;85.90;;;;;;5020207;28;19948;-81
2022/11/11 14:38:17;;;;;;;;;;;21.20;85.90;;;;;;5018650;28;19932;-81
2022/11/11 14:40:45;;;;;;;;;;;21.20;85.80;;;;;;4993941;28;20355;-84
2022/11/11 14:43:31;;;;;;;;;;;21.20;85.70;;;;;;5018192;28;19932;-83
2022/11/11 14:46:00;;;;;;;;;;;21.20;85.70;;;;;;5018582;28;19933;-83
2022/11/11 14:48:49;;;;;;;;;;;21.20;86.30;;;;;;5017803;28;20407;-83
2022/11/11 14:51:34;;;;;;;;;;;21.20;85.50;;;;;;5018008;28;19993;-83
2022/11/11 14:54:02;;;;;;;;;;;21.20;85.40;;;;;;5017947;28;19925;-83
2022/11/11 14:56:31;;;;;;;;;;;21.20;85.30;;;;;;5018074;28;19926;-83
2022/11/11 14:59:03;;;;;;;;;;;21.10;85.00;;;;;;5018093;28;19932;-83
2022/11/11 15:01:30;;;;;;;;;;;21.40;85.30;;;;;;5018709;28;19980;-83
2022/11/11 15:04:00;;;;;;;;;;;21.20;84.90;;;;;;5017874;28;19926;-83
2022/11/11 15:06:30;;;;;;;;;;;21.10;84.70;;;;;;5017580;28;19932;-83
2022/11/11 15:09:00;;;;;;;;;;;21.10;84.60;;;;;;5017889;28;19925;-84
2022/11/11 15:11:29;;;;;;;;;;;21.10;84.60;;;;;;5017409;28;19929;-84
2022/11/11 15:14:10;;;;;;;;;;;21.10;84.40;;;;;;5017512;28;19925;-84
2022/11/11 15:16:48;;;;;;;;;;;21.10;84.30;;;;;;5022343;28;20464;-83
2022/11/11 15:19:25;;;;;;;;;;;21.10;84.20;;;;;;5023030;28;19949;-84
2022/11/11 15:21:57;;;;;;;;;;;21.10;84.10;;;;;;5023057;28;19925;-83
2022/11/11 15:24:29;;;;;;;;;;;21.10;84.00;;;;;;5021016;28;19956;-83
2022/11/11 15:27:00;;;;;;;;;;;21.10;83.90;;;;;;5023679;28;19985;-83
2022/11/11 15:29:39;;;;;;;;;;;21.10;83.90;;;;;;5023822;28;19965;-83
2022/11/11 15:32:09;;;;;;;;;;;21.10;83.80;;;;;;5023853;28;19925;-83
2022/11/11 15:34:42;;;;;;;;;;;21.10;83.80;;;;;;5023159;28;20016;-82
2022/11/11 15:37:11;;;;;;;;;;;21.10;83.80;;;;;;5022698;28;19969;-83
2022/11/11 15:39:39;;;;;;;;;;;21.10;83.80;;;;;;5017018;28;20400;-84
2022/11/11 15:42:11;;;;;;;;;;;21.10;83.80;;;;;;5017452;28;19925;-81
2022/11/11 15:44:39;;;;;;;;;;;21.00;83.70;;;;;;5017000;28;19925;-80
2022/11/11 15:47:05;;;;;;;;;;;21.10;83.70;;;;;;5017122;28;19925;-79
2022/11/11 15:49:39;;;;;;;;;;;21.10;83.60;;;;;;5017132;28;19925;-82
2022/11/11 15:52:08;;;;;;;;;;;21.10;83.50;;;;;;5018957;28;19926;-82
2022/11/11 15:54:35;;;;;;;;;;;21.10;83.50;;;;;;5016596;28;19930;-82
2022/11/11 15:57:15;;;;;;;;;;;21.10;83.50;;;;;;5016975;28;19933;-83
2022/11/11 15:59:43;;;;;;;;;;;21.10;83.40;;;;;;5017780;28;19925;-82
2022/11/11 16:02:17;;;;;;;;;;;21.20;83.40;;;;;;5018214;28;19965;-81
2022/11/11 16:04:47;;;;;;;;;;;20.90;82.90;;;;;;5018754;28;20399;-82
2022/11/11 16:07:18;;;;;;;;;;;21.10;83.00;;;;;;5017810;28;19932;-81
2022/11/11 16:09:45;;;;;;;;;;;21.10;83.70;;;;;;5018547;28;20285;-81
2022/11/11 16:12:13;;;;;;;;;;;21.10;82.90;;;;;;5019561;28;19933;-81
2022/11/11 16:14:43;;;;;;;;;;;21.10;82.90;;;;;;5018187;28;19930;-81
2022/11/11 16:17:12;;;;;;;;;;;21.10;82.80;;;;;;5019309;28;19936;-81
2022/11/11 16:19:41;;;;;;;;;;;21.10;82.80;;;;;;5019410;28;19932;-81
2022/11/11 16:22:10;;;;;;;;;;;21.10;82.70;;;;;;5021521;28;19925;-82
2022/11/11 16:24:38;;;;;;;;;;;21.10;82.60;;;;;;5018367;28;19925;-82
2022/11/11 16:27:05;;;;;;;;;;;21.10;82.60;;;;;;5018256;28;20365;-81
2022/11/11 16:29:34;;;;;;;;;;;21.10;82.50;;;;;;5017756;28;19933;-84
2022/11/11 16:32:02;;;;;;;;;;;21.10;82.50;;;;;;5016024;28;19929;-83
2022/11/11 16:34:45;;;;;;;;;;;21.10;82.50;;;;;;5015902;28;19972;-84
2022/11/11 16:37:12;;;;;;;;;;;21.10;82.40;;;;;;5015761;28;20415;-83
2022/11/11 16:39:39;;;;;;;;;;;21.10;82.40;;;;;;5016667;28;19932;-83
2022/11/11 16:42:17;;;;;;;;;;;21.10;82.30;;;;;;5016139;28;22411;-83
2022/11/11 16:44:48;;;;;;;;;;;21.10;82.30;;;;;;5017567;28;19930;-82
2022/11/11 16:47:35;;;;;;;;;;;21.10;82.30;;;;;;5015929;28;19933;-82
2022/11/11 16:50:05;;;;;;;;;;;21.10;82.20;;;;;;5017612;28;19929;-79
2022/11/11 16:52:38;;;;;;;;;;;21.10;82.20;;;;;;5016976;28;19932;-81
2022/11/11 16:55:05;;;;;;;;;;;20.70;81.70;;;;;;5017363;28;19933;-80
2022/11/11 16:57:33;;;;;;;;;;;21.10;82.10;;;;;;5016642;28;20400;-80
2022/11/11 17:00:01;;;;;;;;;;;21.10;82.10;;;;;;5016730;28;19937;-80
2022/11/11 17:02:28;;;;;;;;;;;21.10;82.00;;;;;;5016697;28;19932;-80
2022/11/11 17:04:56;;;;;;;;;;;21.00;81.90;;;;;;5016933;28;19932;-81
2022/11/11 17:07:31;;;;;;;;;;;21.00;81.90;;;;;;5016836;28;19925;-80
2022/11/11 17:10:14;;;;;;;;;;;21.10;81.90;;;;;;5017170;28;19925;-80
2022/11/11 17:12:41;;;;;;;;;;;21.00;81.80;;;;;;5017542;28;19925;-80
2022/11/11 17:15:09;;;;;;;;;;;21.00;81.80;;;;;;5017069;28;19933;-80
2022/11/11 17:17:36;;;;;;;;;;;21.00;81.80;;;;;;5016425;28;19933;-80
2022/11/11 17:20:04;;;;;;;;;;;21.10;81.90;;;;;;5016650;28;19925;-80
2022/11/11 17:22:32;;;;;;;;;;;21.00;81.70;;;;;;5016581;28;20305;-80
2022/11/11 17:24:58;;;;;;;;;;;21.00;81.70;;;;;;5016216;28;19925;-80
2022/11/11 17:27:28;;;;;;;;;;;21.00;81.70;;;;;;5015821;28;19925;-80
2022/11/11 17:29:55;;;;;;;;;;;21.00;81.60;;;;;;5016250;28;19933;-80
2022/11/11 17:32:22;;;;;;;;;;;21.00;81.60;;;;;;5016082;28;20400;-79
2022/11/11 17:34:48;;;;;;;;;;;21.00;81.50;;;;;;5015795;28;19956;-79
2022/11/11 17:37:15;;;;;;;;;;;21.00;81.50;;;;;;5015937;28;19926;-79
2022/11/11 17:39:43;;;;;;;;;;;21.00;81.40;;;;;;5016132;28;19932;-79
2022/11/11 17:42:10;;;;;;;;;;;21.00;81.50;;;;;;5015558;28;19936;-79
2022/11/11 17:44:37;;;;;;;;;;;21.00;81.40;;;;;;5015362;28;19948;-79
2022/11/11 17:47:04;;;;;;;;;;;21.00;81.40;;;;;;5015542;28;19973;-79
2022/11/11 17:49:30;;;;;;;;;;;21.00;81.40;;;;;;5014753;28;20447;-79
2022/11/11 17:51:57;;;;;;;;;;;21.00;81.30;;;;;;5016163;28;19925;-79
2022/11/11 17:54:26;;;;;;;;;;;20.90;81.20;;;;;;5015318;28;19949;-79
2022/11/11 17:56:54;;;;;;;;;;;21.00;81.30;;;;;;5015534;28;20027;-79
2022/11/11 17:59:20;;;;;;;;;;;21.00;81.30;;;;;;5018655;28;20344;-79
2022/11/11 18:01:47;;;;;;;;;;;20.90;81.10;;;;;;5019359;28;19933;-79
2022/11/11 18:04:13;;;;;;;;;;;21.00;81.20;;;;;;5019926;28;19925;-79
2022/11/11 18:06:40;;;;;;;;;;;20.90;81.00;;;;;;5019550;28;19925;-79
2022/11/11 18:09:06;;;;;;;;;;;20.90;81.00;;;;;;5019270;28;19925;-79
2022/11/11 18:11:34;;;;;;;;;;;20.90;81.00;;;;;;5019394;28;19925;-79
2022/11/11 18:14:03;;;;;;;;;;;20.90;81.00;;;;;;5019544;28;19932;-80
2022/11/11 18:16:30;;;;;;;;;;;20.90;81.70;;;;;;5019424;28;19926;-80
2022/11/11 18:19:00;;;;;;;;;;;20.90;81.00;;;;;;5019023;28;19926;-80
2022/11/11 18:21:27;;;;;;;;;;;20.90;81.00;;;;;;5019163;28;19969;-79
2022/11/11 18:23:54;;;;;;;;;;;20.90;80.90;;;;;;5018970;28;19925;-79
2022/11/11 18:26:21;;;;;;;;;;;20.90;80.80;;;;;;5019057;28;19930;-79
2022/11/11 18:28:47;;;;;;;;;;;20.90;80.90;;;;;;5018904;28;19926;-79
2022/11/11 18:31:15;;;;;;;;;;;20.90;80.80;;;;;;5018575;28;20377;-79
2022/11/11 18:33:43;;;;;;;;;;;20.90;80.80;;;;;;5019241;28;19925;-79
2022/11/11 18:36:11;;;;;;;;;;;20.90;80.70;;;;;;5018875;28;19925;-79
2022/11/11 18:38:37;;;;;;;;;;;20.90;80.70;;;;;;5018219;28;20301;-79
2022/11/11 18:41:05;;;;;;;;;;;20.90;80.60;;;;;;5018626;28;19926;-79
2022/11/11 18:43:35;;;;;;;;;;;20.90;80.60;;;;;;5018997;28;19926;-79
2022/11/11 18:46:03;;;;;;;;;;;20.90;80.50;;;;;;5018916;28;20021;-79
2022/11/11 18:48:31;;;;;;;;;;;20.80;80.40;;;;;;5018628;28;20028;-80
2022/11/11 18:50:58;;;;;;;;;;;20.80;80.40;;;;;;5017688;28;19932;-80
2022/11/11 18:53:24;;;;;;;;;;;20.80;80.40;;;;;;5017872;28;19925;-80
2022/11/11 18:55:51;;;;;;;;;;;20.90;80.50;;;;;;5017788;28;19937;-80
2022/11/11 18:58:17;;;;;;;;;;;20.80;80.40;;;;;;5017643;28;19925;-80
2022/11/11 19:00:44;;;;;;;;;;;20.90;80.50;;;;;;5017965;28;20034;-80
2022/11/11 19:03:11;;;;;;;;;;;20.80;80.40;;;;;;5017980;28;19929;-80
2022/11/11 19:05:38;;;;;;;;;;;20.80;80.40;;;;;;5017951;28;19926;-81
2022/11/11 19:08:05;;;;;;;;;;;20.80;80.40;;;;;;5017529;28;19933;-80
2022/11/11 19:10:32;;;;;;;;;;;20.80;80.40;;;;;;5016617;28;19925;-82
2022/11/11 19:12:58;;;;;;;;;;;20.80;80.40;;;;;;5017848;28;19940;-80
2022/11/11 19:15:25;;;;;;;;;;;20.80;80.40;;;;;;5018241;28;20000;-80
2022/11/11 19:17:52;;;;;;;;;;;20.80;80.40;;;;;;5018833;28;19925;-80
2022/11/11 19:20:19;;;;;;;;;;;20.80;80.40;;;;;;5018485;28;20361;-80
2022/11/11 19:22:47;;;;;;;;;;;20.80;80.40;;;;;;5017860;28;19932;-80
2022/11/11 19:25:13;;;;;;;;;;;20.80;80.40;;;;;;5017586;28;20401;-81
2022/11/11 19:27:40;;;;;;;;;;;20.80;80.40;;;;;;5017590;28;19932;-81
2022/11/11 19:30:07;;;;;;;;;;;20.80;80.40;;;;;;5018490;28;19926;-81
2022/11/11 19:32:34;;;;;;;;;;;20.80;80.40;;;;;;5018719;28;19925;-81
2022/11/11 19:35:00;;;;;;;;;;;20.80;80.40;;;;;;5017209;28;20385;-79
2022/11/11 19:37:27;;;;;;;;;;;20.80;80.40;;;;;;5017317;28;20377;-81
2022/11/11 19:39:55;;;;;;;;;;;20.80;80.40;;;;;;5018228;28;19932;-81
2022/11/11 19:42:21;;;;;;;;;;;20.80;80.40;;;;;;5018272;28;19929;-82
2022/11/11 19:44:48;;;;;;;;;;;20.80;80.40;;;;;;5017966;28;20381;-82
2022/11/11 19:47:15;;;;;;;;;;;20.80;80.40;;;;;;5018344;28;19925;-82
2022/11/11 19:49:42;;;;;;;;;;;20.80;80.40;;;;;;5018560;28;19933;-81
2022/11/11 19:52:09;;;;;;;;;;;20.80;80.40;;;;;;5017599;28;20377;-81
2022/11/11 19:54:35;;;;;;;;;;;20.80;80.40;;;;;;5018330;28;19925;-81
2022/11/11 19:57:03;;;;;;;;;;;20.80;80.40;;;;;;5017834;28;19930;-81
2022/11/11 19:59:30;;;;;;;;;;;20.80;80.40;;;;;;5017071;28;20381;-81
2022/11/11 20:01:57;;;;;;;;;;;20.80;80.40;;;;;;5017280;28;19929;-81
2022/11/11 20:04:23;;;;;;;;;;;20.90;80.50;;;;;;5017120;28;19933;-81
2022/11/11 20:06:50;;;;;;;;;;;20.90;80.50;;;;;;5016642;28;19926;-82
2022/11/11 20:09:16;;;;;;;;;;;21.10;80.80;;;;;;5016423;28;20273;-82
2022/11/11 20:11:43;;;;;;;;;;;20.80;80.40;;;;;;5016790;28;19932;-82
2022/11/11 20:14:11;;;;;;;;;;;20.80;80.40;;;;;;5016380;28;19959;-82
2022/11/11 20:16:38;;;;;;;;;;;20.80;80.40;;;;;;5016417;28;20391;-81
2022/11/11 20:19:04;;;;;;;;;;;20.80;80.40;;;;;;5017173;28;19926;-81
2022/11/11 20:21:31;;;;;;;;;;;20.80;80.40;;;;;;5016641;28;19926;-81
2022/11/11 20:23:58;;;;;;;;;;;20.80;80.40;;;;;;5017161;28;19948;-81
2022/11/11 20:26:25;;;;;;;;;;;20.80;80.40;;;;;;5017144;28;19925;-81
2022/11/11 20:28:55;;;;;;;;;;;20.80;80.40;;;;;;5018522;28;19929;-81
2022/11/11 20:31:24;;;;;;;;;;;20.80;80.40;;;;;;5017173;28;19929;-81
2022/11/11 20:33:50;;;;;;;;;;;20.80;80.40;;;;;;5017763;28;19925;-81
2022/11/11 20:36:17;;;;;;;;;;;20.80;80.40;;;;;;5017245;28;19925;-81
2022/11/11 20:38:43;;;;;;;;;;;20.80;80.40;;;;;;5018033;28;19944;-81
2022/11/11 20:41:11;;;;;;;;;;;20.80;80.40;;;;;;5018129;28;19932;-82
2022/11/11 20:43:38;;;;;;;;;;;20.80;80.40;;;;;;5017886;28;20020;-82
2022/11/11 20:46:06;;;;;;;;;;;20.80;80.40;;;;;;5016658;28;19932;-81
2022/11/11 20:48:35;;;;;;;;;;;20.80;80.40;;;;;;5016964;28;19980;-81
2022/11/11 20:51:02;;;;;;;;;;;20.80;80.40;;;;;;5018036;28;20016;-80
2022/11/11 20:53:29;;;;;;;;;;;20.80;80.40;;;;;;5018263;28;20344;-80
2022/11/11 20:55:59;;;;;;;;;;;20.70;80.20;;;;;;5016936;28;19925;-80
2022/11/11 20:58:25;;;;;;;;;;;20.80;80.40;;;;;;5019578;28;19933;-82
2022/11/11 21:00:52;;;;;;;;;;;20.80;80.40;;;;;;5019343;28;19929;-82
2022/11/11 21:03:18;;;;;;;;;;;20.80;80.40;;;;;;5016647;28;20309;-81
2022/11/11 21:05:46;;;;;;;;;;;20.80;80.40;;;;;;5017200;28;19925;-81
2022/11/11 21:08:14;;;;;;;;;;;20.80;80.40;;;;;;5016901;28;19933;-82
2022/11/11 21:10:41;;;;;;;;;;;20.90;80.50;;;;;;5017149;28;20016;-82
2022/11/11 21:13:08;;;;;;;;;;;20.80;80.40;;;;;;5019251;28;19925;-82
2022/11/11 21:15:34;;;;;;;;;;;20.80;80.40;;;;;;5018724;28;19925;-82
2022/11/11 21:18:01;;;;;;;;;;;20.80;80.40;;;;;;5019470;28;19933;-82
2022/11/11 21:20:27;;;;;;;;;;;20.80;80.40;;;;;;5017651;28;20020;-82
2022/11/11 21:22:55;;;;;;;;;;;20.70;80.20;;;;;;5018309;28;20333;-82
2022/11/11 21:25:22;;;;;;;;;;;20.70;80.20;;;;;;5018331;28;19984;-82
2022/11/11 21:27:49;;;;;;;;;;;21.00;80.60;;;;;;5017406;28;19925;-82
2022/11/11 21:30:15;;;;;;;;;;;20.70;80.20;;;;;;5021540;28;19926;-83
2022/11/11 21:32:42;;;;;;;;;;;20.70;80.20;;;;;;5023774;28;19929;-82
2022/11/11 21:35:09;;;;;;;;;;;20.70;80.20;;;;;;5017500;28;20270;-81
2022/11/11 21:37:35;;;;;;;;;;;20.70;80.20;;;;;;5015292;28;19933;-81
2022/11/11 21:40:03;;;;;;;;;;;20.70;80.20;;;;;;5015265;28;19933;-82
2022/11/11 21:42:30;;;;;;;;;;;20.70;80.20;;;;;;5015093;28;19932;-82
2022/11/11 21:44:56;;;;;;;;;;;20.70;80.20;;;;;;5014751;28;19926;-82
2022/11/11 21:47:23;;;;;;;;;;;20.60;80.20;;;;;;5015219;28;19948;-82
2022/11/11 21:49:49;;;;;;;;;;;20.70;80.20;;;;;;5014997;28;19933;-82
2022/11/11 21:52:18;;;;;;;;;;;20.70;80.20;;;;;;5015090;28;19925;-82
2022/11/11 21:54:45;;;;;;;;;;;20.70;80.20;;;;;;5015047;28;19930;-82
2022/11/11 21:57:13;;;;;;;;;;;20.80;80.40;;;;;;5015347;28;19926;-82
2022/11/11 21:59:39;;;;;;;;;;;20.80;80.40;;;;;;5014770;28;20385;-82
2022/11/11 22:02:06;;;;;;;;;;;20.60;80.20;;;;;;5015076;28;19925;-82
